sensor_id;sensor_type;location;lat;lon;timestamp;P1;durP1;ratioP1;P2;durP2;ratioP2
71902;SDS011;59778;50.310;18.780;2023-11-19T00:12:25;124.10;;;40.13;;
71902;SDS011;59778;50.310;18.780;2023-11-19T00:27:46;152.77;;;50.63;;
71902;SDS011;59778;50.310;18.780;2023-11-19T00:43:08;152.83;;;50.73;;
71902;SDS011;59778;50.310;18.780;2023-11-19T00:58:29;111.17;;;35.17;;
71902;SDS011;59778;50.310;18.780;2023-11-19T01:13:50;116.83;;;36.17;;
71902;SDS011;59778;50.310;18.780;2023-11-19T01:29:15;124.97;;;39.40;;
71902;SDS011;59778;50.310;18.780;2023-11-19T01:44:36;142.10;;;47.97;;
71902;SDS011;59778;50.310;18.780;2023-11-19T01:59:57;93.97;;;33.80;;
71902;SDS011;59778;50.310;18.780;2023-11-19T02:15:19;81.73;;;28.33;;
71902;SDS011;59778;50.310;18.780;2023-11-19T02:30:40;83.07;;;30.57;;
71902;SDS011;59778;50.310;18.780;2023-11-19T02:46:02;77.47;;;28.90;;
71902;SDS011;59778;50.310;18.780;2023-11-19T03:01:24;68.40;;;26.83;;
71902;SDS011;59778;50.310;18.780;2023-11-19T03:16:51;83.37;;;29.40;;
71902;SDS011;59778;50.310;18.780;2023-11-19T03:32:12;79.90;;;29.30;;
71902;SDS011;59778;50.310;18.780;2023-11-19T03:47:34;58.50;;;23.53;;
71902;SDS011;59778;50.310;18.780;2023-11-19T04:02:55;55.97;;;23.23;;
71902;SDS011;59778;50.310;18.780;2023-11-19T04:18:17;58.13;;;23.30;;
71902;SDS011;59778;50.310;18.780;2023-11-19T04:33:38;64.47;;;25.17;;
71902;SDS011;59778;50.310;18.780;2023-11-19T04:48:59;59.23;;;23.67;;
71902;SDS011;59778;50.310;18.780;2023-11-19T05:04:20;58.87;;;22.10;;
71902;SDS011;59778;50.310;18.780;2023-11-19T05:19:41;67.60;;;27.27;;
71902;SDS011;59778;50.310;18.780;2023-11-19T05:35:03;82.90;;;33.13;;
71902;SDS011;59778;50.310;18.780;2023-11-19T05:50:24;71.20;;;25.97;;
71902;SDS011;59778;50.310;18.780;2023-11-19T06:05:45;56.30;;;22.73;;
71902;SDS011;59778;50.310;18.780;2023-11-19T06:21:07;57.53;;;23.07;;
71902;SDS011;59778;50.310;18.780;2023-11-19T06:36:28;83.43;;;33.63;;
71902;SDS011;59778;50.310;18.780;2023-11-19T06:51:49;65.53;;;29.87;;
71902;SDS011;59778;50.310;18.780;2023-11-19T07:07:11;70.83;;;29.67;;
71902;SDS011;59778;50.310;18.780;2023-11-19T07:22:32;61.40;;;25.10;;
71902;SDS011;59778;50.310;18.780;2023-11-19T07:37:53;64.70;;;27.10;;
71902;SDS011;59778;50.310;18.780;2023-11-19T07:53:14;72.97;;;29.30;;
71902;SDS011;59778;50.310;18.780;2023-11-19T08:08:35;72.10;;;29.00;;
71902;SDS011;59778;50.310;18.780;2023-11-19T08:23:58;63.90;;;24.50;;
71902;SDS011;59778;50.310;18.780;2023-11-19T08:39:20;56.63;;;21.20;;
71902;SDS011;59778;50.310;18.780;2023-11-19T08:54:45;52.77;;;20.90;;
71902;SDS011;59778;50.310;18.780;2023-11-19T09:10:06;46.60;;;18.90;;
71902;SDS011;59778;50.310;18.780;2023-11-19T09:25:29;50.07;;;18.97;;
71902;SDS011;59778;50.310;18.780;2023-11-19T09:40:50;39.93;;;18.43;;
71902;SDS011;59778;50.310;18.780;2023-11-19T09:56:11;37.70;;;14.67;;
71902;SDS011;59778;50.310;18.780;2023-11-19T10:11:33;30.30;;;13.20;;
71902;SDS011;59778;50.310;18.780;2023-11-19T10:27:02;26.30;;;11.03;;
71902;SDS011;59778;50.310;18.780;2023-11-19T10:42:26;28.63;;;11.40;;
71902;SDS011;59778;50.310;18.780;2023-11-19T10:57:47;37.20;;;14.50;;
71902;SDS011;59778;50.310;18.780;2023-11-19T11:13:10;44.70;;;18.10;;
71902;SDS011;59778;50.310;18.780;2023-11-19T11:28:37;55.47;;;20.77;;
71902;SDS011;59778;50.310;18.780;2023-11-19T11:44:01;55.50;;;22.63;;
71902;SDS011;59778;50.310;18.780;2023-11-19T11:59:23;60.27;;;23.40;;
71902;SDS011;59778;50.310;18.780;2023-11-19T12:30:21;54.27;;;22.50;;
71902;SDS011;59778;50.310;18.780;2023-11-19T12:45:43;52.33;;;20.63;;
71902;SDS011;59778;50.310;18.780;2023-11-19T13:01:05;42.13;;;16.23;;
71902;SDS011;59778;50.310;18.780;2023-11-19T13:16:27;36.00;;;13.80;;
71902;SDS011;59778;50.310;18.780;2023-11-19T13:31:49;35.53;;;14.20;;
71902;SDS011;59778;50.310;18.780;2023-11-19T13:47:10;37.13;;;14.87;;
71902;SDS011;59778;50.310;18.780;2023-11-19T14:02:34;35.57;;;14.90;;
71902;SDS011;59778;50.310;18.780;2023-11-19T14:17:55;34.50;;;13.53;;
71902;SDS011;59778;50.310;18.780;2023-11-19T14:33:16;20.93;;;9.60;;
71902;SDS011;59778;50.310;18.780;2023-11-19T14:48:39;17.23;;;8.03;;
71902;SDS011;59778;50.310;18.780;2023-11-19T15:04:00;20.97;;;9.00;;
71902;SDS011;59778;50.310;18.780;2023-11-19T15:19:21;18.63;;;9.00;;
71902;SDS011;59778;50.310;18.780;2023-11-19T15:34:42;25.00;;;11.37;;
71902;SDS011;59778;50.310;18.780;2023-11-19T15:50:03;20.10;;;8.80;;
71902;SDS011;59778;50.310;18.780;2023-11-19T16:05:25;15.63;;;7.27;;
71902;SDS011;59778;50.310;18.780;2023-11-19T16:20:46;31.37;;;12.13;;
71902;SDS011;59778;50.310;18.780;2023-11-19T16:36:07;29.43;;;12.93;;
71902;SDS011;59778;50.310;18.780;2023-11-19T16:51:29;28.10;;;12.20;;
71902;SDS011;59778;50.310;18.780;2023-11-19T17:06:50;27.47;;;12.27;;
71902;SDS011;59778;50.310;18.780;2023-11-19T17:22:12;23.63;;;11.53;;
71902;SDS011;59778;50.310;18.780;2023-11-19T17:37:33;24.00;;;11.43;;
71902;SDS011;59778;50.310;18.780;2023-11-19T17:52:56;23.43;;;9.97;;
71902;SDS011;59778;50.310;18.780;2023-11-19T18:08:17;21.03;;;10.33;;
71902;SDS011;59778;50.310;18.780;2023-11-19T18:23:39;21.63;;;10.50;;
71902;SDS011;59778;50.310;18.780;2023-11-19T18:39:00;26.20;;;11.73;;
71902;SDS011;59778;50.310;18.780;2023-11-19T18:54:21;32.47;;;13.13;;
71902;SDS011;59778;50.310;18.780;2023-11-19T19:09:43;36.93;;;14.10;;
71902;SDS011;59778;50.310;18.780;2023-11-19T19:25:06;33.47;;;15.90;;
71902;SDS011;59778;50.310;18.780;2023-11-19T19:40:28;35.67;;;14.87;;
71902;SDS011;59778;50.310;18.780;2023-11-19T19:55:49;36.33;;;16.27;;
71902;SDS011;59778;50.310;18.780;2023-11-19T20:11:11;45.47;;;17.73;;
71902;SDS011;59778;50.310;18.780;2023-11-19T20:26:33;31.50;;;15.87;;
71902;SDS011;59778;50.310;18.780;2023-11-19T20:41:55;48.27;;;19.57;;
71902;SDS011;59778;50.310;18.780;2023-11-19T20:57:16;41.80;;;16.63;;
71902;SDS011;59778;50.310;18.780;2023-11-19T21:12:38;42.10;;;17.43;;
71902;SDS011;59778;50.310;18.780;2023-11-19T21:27:59;29.63;;;15.17;;
71902;SDS011;59778;50.310;18.780;2023-11-19T21:43:20;34.17;;;15.67;;
71902;SDS011;59778;50.310;18.780;2023-11-19T21:58:42;31.93;;;13.20;;
71902;SDS011;59778;50.310;18.780;2023-11-19T22:14:04;26.97;;;12.93;;
71902;SDS011;59778;50.310;18.780;2023-11-19T22:29:26;29.67;;;11.40;;
71902;SDS011;59778;50.310;18.780;2023-11-19T22:44:47;26.00;;;10.90;;
71902;SDS011;59778;50.310;18.780;2023-11-19T23:00:08;29.90;;;11.33;;
71902;SDS011;59778;50.310;18.780;2023-11-19T23:15:39;28.00;;;10.33;;
71902;SDS011;59778;50.310;18.780;2023-11-19T23:31:00;24.93;;;9.00;;
71902;SDS011;59778;50.310;18.780;2023-11-19T23:46:21;19.63;;;8.53;;
